sensor_id;sensor_type;location;lat;lon;timestamp;temperature;humidity
65046;DHT22;54657;52.022;5.534;2023-04-19T00:00:18;11.50;66.80
65046;DHT22;54657;52.022;5.534;2023-04-19T00:02:45;11.50;66.70
65046;DHT22;54657;52.022;5.534;2023-04-19T00:05:13;11.50;66.80
65046;DHT22;54657;52.022;5.534;2023-04-19T00:07:39;11.60;66.70
65046;DHT22;54657;52.022;5.534;2023-04-19T00:10:06;11.60;67.10
65046;DHT22;54657;52.022;5.534;2023-04-19T00:12:31;11.60;67.20
65046;DHT22;54657;52.022;5.534;2023-04-19T00:14:57;11.60;67.20
65046;DHT22;54657;52.022;5.534;2023-04-19T00:17:23;11.60;66.90
65046;DHT22;54657;52.022;5.534;2023-04-19T00:19:48;11.70;66.90
65046;DHT22;54657;52.022;5.534;2023-04-19T00:22:14;11.70;66.90
65046;DHT22;54657;52.022;5.534;2023-04-19T00:24:40;11.70;66.90
65046;DHT22;54657;52.022;5.534;2023-04-19T00:27:05;11.80;67.30
65046;DHT22;54657;52.022;5.534;2023-04-19T00:29:31;11.80;67.20
65046;DHT22;54657;52.022;5.534;2023-04-19T00:31:56;11.80;66.90
65046;DHT22;54657;52.022;5.534;2023-04-19T00:34:22;11.80;67.00
65046;DHT22;54657;52.022;5.534;2023-04-19T00:36:47;11.80;67.10
65046;DHT22;54657;52.022;5.534;2023-04-19T00:39:13;11.80;67.30
65046;DHT22;54657;52.022;5.534;2023-04-19T00:41:39;11.90;68.10
65046;DHT22;54657;52.022;5.534;2023-04-19T00:44:05;11.80;67.30
65046;DHT22;54657;52.022;5.534;2023-04-19T00:46:30;11.80;67.70
65046;DHT22;54657;52.022;5.534;2023-04-19T00:48:56;11.80;67.60
65046;DHT22;54657;52.022;5.534;2023-04-19T00:51:22;11.80;67.50
65046;DHT22;54657;52.022;5.534;2023-04-19T00:53:48;11.80;67.80
65046;DHT22;54657;52.022;5.534;2023-04-19T00:56:14;11.70;68.10
65046;DHT22;54657;52.022;5.534;2023-04-19T00:58:40;11.60;68.00
65046;DHT22;54657;52.022;5.534;2023-04-19T01:01:06;11.60;68.30
65046;DHT22;54657;52.022;5.534;2023-04-19T01:03:32;11.50;68.80
65046;DHT22;54657;52.022;5.534;2023-04-19T01:05:59;11.50;68.50
65046;DHT22;54657;52.022;5.534;2023-04-19T01:08:25;11.50;68.70
65046;DHT22;54657;52.022;5.534;2023-04-19T01:10:50;11.50;68.80
65046;DHT22;54657;52.022;5.534;2023-04-19T01:13:16;11.40;69.10
65046;DHT22;54657;52.022;5.534;2023-04-19T01:15:41;11.40;68.80
65046;DHT22;54657;52.022;5.534;2023-04-19T01:18:07;11.40;69.30
65046;DHT22;54657;52.022;5.534;2023-04-19T01:20:33;11.30;69.10
65046;DHT22;54657;52.022;5.534;2023-04-19T01:22:58;11.30;69.60
65046;DHT22;54657;52.022;5.534;2023-04-19T01:25:24;11.30;69.60
65046;DHT22;54657;52.022;5.534;2023-04-19T01:27:49;11.20;69.40
65046;DHT22;54657;52.022;5.534;2023-04-19T01:30:15;11.30;69.30
65046;DHT22;54657;52.022;5.534;2023-04-19T01:32:41;11.20;69.40
65046;DHT22;54657;52.022;5.534;2023-04-19T01:35:06;11.20;69.40
65046;DHT22;54657;52.022;5.534;2023-04-19T01:37:35;11.20;69.50
65046;DHT22;54657;52.022;5.534;2023-04-19T01:40:02;11.20;69.80
65046;DHT22;54657;52.022;5.534;2023-04-19T01:42:27;11.10;69.90
65046;DHT22;54657;52.022;5.534;2023-04-19T01:44:53;11.10;69.80
65046;DHT22;54657;52.022;5.534;2023-04-19T01:47:19;11.10;69.90
65046;DHT22;54657;52.022;5.534;2023-04-19T01:49:44;11.10;70.00
65046;DHT22;54657;52.022;5.534;2023-04-19T01:52:10;11.10;70.20
65046;DHT22;54657;52.022;5.534;2023-04-19T01:54:35;11.10;70.00
65046;DHT22;54657;52.022;5.534;2023-04-19T01:57:01;11.10;70.10
65046;DHT22;54657;52.022;5.534;2023-04-19T01:59:27;11.00;70.10
65046;DHT22;54657;52.022;5.534;2023-04-19T02:01:52;11.00;70.80
65046;DHT22;54657;52.022;5.534;2023-04-19T02:04:19;11.00;70.40
65046;DHT22;54657;52.022;5.534;2023-04-19T02:06:51;11.00;70.40
65046;DHT22;54657;52.022;5.534;2023-04-19T02:09:17;11.00;70.60
65046;DHT22;54657;52.022;5.534;2023-04-19T02:11:42;11.00;70.40
65046;DHT22;54657;52.022;5.534;2023-04-19T02:14:08;11.00;70.60
65046;DHT22;54657;52.022;5.534;2023-04-19T02:16:34;10.90;71.10
65046;DHT22;54657;52.022;5.534;2023-04-19T02:18:59;10.90;71.00
65046;DHT22;54657;52.022;5.534;2023-04-19T02:21:25;10.90;70.70
65046;DHT22;54657;52.022;5.534;2023-04-19T02:23:50;10.90;70.80
65046;DHT22;54657;52.022;5.534;2023-04-19T02:26:16;10.80;70.80
65046;DHT22;54657;52.022;5.534;2023-04-19T02:28:41;10.80;70.90
65046;DHT22;54657;52.022;5.534;2023-04-19T02:31:07;10.80;70.80
65046;DHT22;54657;52.022;5.534;2023-04-19T02:33:33;10.80;71.20
65046;DHT22;54657;52.022;5.534;2023-04-19T02:35:59;10.80;72.20
65046;DHT22;54657;52.022;5.534;2023-04-19T02:38:24;10.80;71.40
65046;DHT22;54657;52.022;5.534;2023-04-19T02:40:50;10.80;72.30
65046;DHT22;54657;52.022;5.534;2023-04-19T02:43:15;10.70;72.40
65046;DHT22;54657;52.022;5.534;2023-04-19T02:45:41;10.70;72.10
65046;DHT22;54657;52.022;5.534;2023-04-19T02:48:06;10.70;72.10
65046;DHT22;54657;52.022;5.534;2023-04-19T02:50:32;10.70;71.90
65046;DHT22;54657;52.022;5.534;2023-04-19T02:52:58;10.70;72.00
65046;DHT22;54657;52.022;5.534;2023-04-19T02:55:23;10.70;72.30
65046;DHT22;54657;52.022;5.534;2023-04-19T02:57:49;10.70;72.00
65046;DHT22;54657;52.022;5.534;2023-04-19T03:00:15;10.70;71.90
65046;DHT22;54657;52.022;5.534;2023-04-19T03:02:42;10.70;72.40
65046;DHT22;54657;52.022;5.534;2023-04-19T03:05:09;10.70;71.90
65046;DHT22;54657;52.022;5.534;2023-04-19T03:07:34;10.70;71.70
65046;DHT22;54657;52.022;5.534;2023-04-19T03:10:00;10.70;72.20
65046;DHT22;54657;52.022;5.534;2023-04-19T03:12:26;10.70;71.70
65046;DHT22;54657;52.022;5.534;2023-04-19T03:14:52;10.80;72.00
65046;DHT22;54657;52.022;5.534;2023-04-19T03:17:17;10.80;72.20
65046;DHT22;54657;52.022;5.534;2023-04-19T03:19:43;10.80;72.20
65046;DHT22;54657;52.022;5.534;2023-04-19T03:22:09;10.80;72.00
65046;DHT22;54657;52.022;5.534;2023-04-19T03:24:35;10.80;71.70
65046;DHT22;54657;52.022;5.534;2023-04-19T03:27:02;10.80;71.60
65046;DHT22;54657;52.022;5.534;2023-04-19T03:29:27;10.80;72.40
65046;DHT22;54657;52.022;5.534;2023-04-19T03:31:53;10.90;72.10
65046;DHT22;54657;52.022;5.534;2023-04-19T03:34:18;10.80;72.20
65046;DHT22;54657;52.022;5.534;2023-04-19T03:36:44;10.90;72.10
65046;DHT22;54657;52.022;5.534;2023-04-19T03:39:10;10.90;72.40
65046;DHT22;54657;52.022;5.534;2023-04-19T03:41:35;10.90;72.10
65046;DHT22;54657;52.022;5.534;2023-04-19T03:44:01;11.00;72.20
65046;DHT22;54657;52.022;5.534;2023-04-19T03:46:26;11.00;72.20
65046;DHT22;54657;52.022;5.534;2023-04-19T03:48:56;11.00;72.20
65046;DHT22;54657;52.022;5.534;2023-04-19T03:51:21;11.00;72.10
65046;DHT22;54657;52.022;5.534;2023-04-19T03:53:47;11.00;72.10
65046;DHT22;54657;52.022;5.534;2023-04-19T03:56:13;11.00;72.00
65046;DHT22;54657;52.022;5.534;2023-04-19T03:58:38;11.10;71.80
65046;DHT22;54657;52.022;5.534;2023-04-19T04:01:04;11.10;71.50
65046;DHT22;54657;52.022;5.534;2023-04-19T04:03:32;11.10;71.30
65046;DHT22;54657;52.022;5.534;2023-04-19T04:05:58;11.10;71.50
65046;DHT22;54657;52.022;5.534;2023-04-19T04:08:24;11.00;71.40
65046;DHT22;54657;52.022;5.534;2023-04-19T04:10:49;11.00;71.60
65046;DHT22;54657;52.022;5.534;2023-04-19T04:13:15;10.90;71.50
65046;DHT22;54657;52.022;5.534;2023-04-19T04:15:40;10.90;71.50
65046;DHT22;54657;52.022;5.534;2023-04-19T04:18:06;10.90;71.90
65046;DHT22;54657;52.022;5.534;2023-04-19T04:20:32;10.80;72.00
65046;DHT22;54657;52.022;5.534;2023-04-19T04:22:57;10.80;71.70
65046;DHT22;54657;52.022;5.534;2023-04-19T04:25:23;10.80;71.80
65046;DHT22;54657;52.022;5.534;2023-04-19T04:27:50;10.80;72.30
65046;DHT22;54657;52.022;5.534;2023-04-19T04:30:16;10.70;71.50
65046;DHT22;54657;52.022;5.534;2023-04-19T04:32:42;10.70;71.80
65046;DHT22;54657;52.022;5.534;2023-04-19T04:35:09;10.70;71.60
65046;DHT22;54657;52.022;5.534;2023-04-19T04:37:35;10.60;71.70
65046;DHT22;54657;52.022;5.534;2023-04-19T04:40:02;10.70;71.60
65046;DHT22;54657;52.022;5.534;2023-04-19T04:42:31;10.60;71.80
65046;DHT22;54657;52.022;5.534;2023-04-19T04:44:57;10.60;71.60
65046;DHT22;54657;52.022;5.534;2023-04-19T04:47:32;10.60;71.60
65046;DHT22;54657;52.022;5.534;2023-04-19T04:49:59;10.60;71.50
65046;DHT22;54657;52.022;5.534;2023-04-19T04:52:25;10.50;71.70
65046;DHT22;54657;52.022;5.534;2023-04-19T04:54:50;10.50;71.80
65046;DHT22;54657;52.022;5.534;2023-04-19T04:57:16;10.40;72.00
65046;DHT22;54657;52.022;5.534;2023-04-19T04:59:42;10.40;71.70
65046;DHT22;54657;52.022;5.534;2023-04-19T05:02:07;10.40;71.60
65046;DHT22;54657;52.022;5.534;2023-04-19T05:04:33;10.30;71.90
65046;DHT22;54657;52.022;5.534;2023-04-19T05:06:58;10.30;72.00
65046;DHT22;54657;52.022;5.534;2023-04-19T05:09:24;10.30;71.70
65046;DHT22;54657;52.022;5.534;2023-04-19T05:11:49;10.30;71.70
65046;DHT22;54657;52.022;5.534;2023-04-19T05:14:15;10.40;71.50
65046;DHT22;54657;52.022;5.534;2023-04-19T05:16:41;10.40;71.50
65046;DHT22;54657;52.022;5.534;2023-04-19T05:19:06;10.40;71.30
65046;DHT22;54657;52.022;5.534;2023-04-19T05:21:32;10.40;71.70
65046;DHT22;54657;52.022;5.534;2023-04-19T05:23:58;10.30;72.20
65046;DHT22;54657;52.022;5.534;2023-04-19T05:26:24;10.30;72.30
65046;DHT22;54657;52.022;5.534;2023-04-19T05:28:49;10.30;71.80
65046;DHT22;54657;52.022;5.534;2023-04-19T05:31:15;10.30;72.00
65046;DHT22;54657;52.022;5.534;2023-04-19T05:33:40;10.30;71.80
65046;DHT22;54657;52.022;5.534;2023-04-19T05:36:06;10.40;71.60
65046;DHT22;54657;52.022;5.534;2023-04-19T05:38:32;10.50;71.60
65046;DHT22;54657;52.022;5.534;2023-04-19T05:40:58;10.50;71.30
65046;DHT22;54657;52.022;5.534;2023-04-19T05:43:23;10.50;71.20
65046;DHT22;54657;52.022;5.534;2023-04-19T05:45:49;10.60;71.20
65046;DHT22;54657;52.022;5.534;2023-04-19T05:48:15;10.50;71.00
65046;DHT22;54657;52.022;5.534;2023-04-19T05:50:40;10.60;70.90
65046;DHT22;54657;52.022;5.534;2023-04-19T05:53:06;10.60;70.50
65046;DHT22;54657;52.022;5.534;2023-04-19T05:55:32;10.70;70.20
65046;DHT22;54657;52.022;5.534;2023-04-19T05:57:58;10.70;69.70
65046;DHT22;54657;52.022;5.534;2023-04-19T06:00:23;10.70;69.30
65046;DHT22;54657;52.022;5.534;2023-04-19T06:02:49;10.70;68.90
65046;DHT22;54657;52.022;5.534;2023-04-19T06:05:15;10.70;68.80
65046;DHT22;54657;52.022;5.534;2023-04-19T06:07:40;10.70;68.60
65046;DHT22;54657;52.022;5.534;2023-04-19T06:10:06;10.70;68.30
65046;DHT22;54657;52.022;5.534;2023-04-19T06:12:32;10.80;68.40
65046;DHT22;54657;52.022;5.534;2023-04-19T06:14:58;10.90;67.80
65046;DHT22;54657;52.022;5.534;2023-04-19T06:17:23;10.90;67.20
65046;DHT22;54657;52.022;5.534;2023-04-19T06:19:53;10.90;67.30
65046;DHT22;54657;52.022;5.534;2023-04-19T06:22:19;11.00;66.60
65046;DHT22;54657;52.022;5.534;2023-04-19T06:24:46;10.90;66.60
65046;DHT22;54657;52.022;5.534;2023-04-19T06:27:12;11.00;66.40
65046;DHT22;54657;52.022;5.534;2023-04-19T06:29:37;11.00;66.10
65046;DHT22;54657;52.022;5.534;2023-04-19T06:32:03;11.10;65.70
65046;DHT22;54657;52.022;5.534;2023-04-19T06:34:29;11.10;65.60
65046;DHT22;54657;52.022;5.534;2023-04-19T06:36:54;11.10;65.20
65046;DHT22;54657;52.022;5.534;2023-04-19T06:39:20;11.20;64.60
65046;DHT22;54657;52.022;5.534;2023-04-19T06:41:45;11.20;65.00
65046;DHT22;54657;52.022;5.534;2023-04-19T06:44:11;11.30;64.60
65046;DHT22;54657;52.022;5.534;2023-04-19T06:46:38;11.30;64.00
65046;DHT22;54657;52.022;5.534;2023-04-19T06:49:03;11.40;63.20
65046;DHT22;54657;52.022;5.534;2023-04-19T06:51:29;11.30;63.20
65046;DHT22;54657;52.022;5.534;2023-04-19T06:53:55;11.40;63.20
65046;DHT22;54657;52.022;5.534;2023-04-19T06:59:06;11.40;60.00
65046;DHT22;54657;52.022;5.534;2023-04-19T07:01:32;11.50;62.60
65046;DHT22;54657;52.022;5.534;2023-04-19T07:03:58;11.50;62.10
65046;DHT22;54657;52.022;5.534;2023-04-19T07:06:23;11.60;61.80
65046;DHT22;54657;52.022;5.534;2023-04-19T07:08:49;11.60;61.40
65046;DHT22;54657;52.022;5.534;2023-04-19T07:11:15;11.70;61.30
65046;DHT22;54657;52.022;5.534;2023-04-19T07:13:40;11.70;60.90
65046;DHT22;54657;52.022;5.534;2023-04-19T07:16:06;11.80;60.70
65046;DHT22;54657;52.022;5.534;2023-04-19T07:18:32;11.90;60.80
65046;DHT22;54657;52.022;5.534;2023-04-19T07:20:58;12.00;60.50
65046;DHT22;54657;52.022;5.534;2023-04-19T07:23:23;12.10;59.30
65046;DHT22;54657;52.022;5.534;2023-04-19T07:25:49;12.10;57.80
65046;DHT22;54657;52.022;5.534;2023-04-19T07:28:15;12.20;58.50
65046;DHT22;54657;52.022;5.534;2023-04-19T07:30:41;12.20;58.60
65046;DHT22;54657;52.022;5.534;2023-04-19T07:33:10;12.20;58.20
65046;DHT22;54657;52.022;5.534;2023-04-19T07:35:38;12.30;58.50
65046;DHT22;54657;52.022;5.534;2023-04-19T07:38:03;12.40;58.00
65046;DHT22;54657;52.022;5.534;2023-04-19T07:40:29;12.40;58.10
65046;DHT22;54657;52.022;5.534;2023-04-19T07:42:55;12.30;55.80
65046;DHT22;54657;52.022;5.534;2023-04-19T07:45:21;12.20;57.10
65046;DHT22;54657;52.022;5.534;2023-04-19T07:47:47;12.20;56.50
65046;DHT22;54657;52.022;5.534;2023-04-19T07:50:12;12.20;56.50
65046;DHT22;54657;52.022;5.534;2023-04-19T07:52:38;12.20;57.00
65046;DHT22;54657;52.022;5.534;2023-04-19T07:55:04;12.20;55.40
65046;DHT22;54657;52.022;5.534;2023-04-19T07:57:30;12.30;56.90
65046;DHT22;54657;52.022;5.534;2023-04-19T07:59:56;12.20;56.00
65046;DHT22;54657;52.022;5.534;2023-04-19T08:02:25;12.30;57.00
65046;DHT22;54657;52.022;5.534;2023-04-19T08:04:52;12.40;56.30
65046;DHT22;54657;52.022;5.534;2023-04-19T08:07:18;12.50;56.20
65046;DHT22;54657;52.022;5.534;2023-04-19T08:09:43;12.50;56.20
65046;DHT22;54657;52.022;5.534;2023-04-19T08:12:09;12.50;55.90
65046;DHT22;54657;52.022;5.534;2023-04-19T08:14:35;12.50;56.40
65046;DHT22;54657;52.022;5.534;2023-04-19T08:17:03;12.60;55.30
65046;DHT22;54657;52.022;5.534;2023-04-19T08:19:29;12.60;55.30
65046;DHT22;54657;52.022;5.534;2023-04-19T08:21:54;12.60;55.50
65046;DHT22;54657;52.022;5.534;2023-04-19T08:24:21;12.60;54.00
65046;DHT22;54657;52.022;5.534;2023-04-19T08:26:46;12.60;53.80
65046;DHT22;54657;52.022;5.534;2023-04-19T08:29:18;12.60;54.80
65046;DHT22;54657;52.022;5.534;2023-04-19T08:31:45;12.60;54.00
65046;DHT22;54657;52.022;5.534;2023-04-19T08:34:11;12.70;53.40
65046;DHT22;54657;52.022;5.534;2023-04-19T08:36:36;12.70;54.40
65046;DHT22;54657;52.022;5.534;2023-04-19T08:39:02;12.70;53.70
65046;DHT22;54657;52.022;5.534;2023-04-19T08:41:29;12.70;54.80
65046;DHT22;54657;52.022;5.534;2023-04-19T08:43:56;12.80;54.50
65046;DHT22;54657;52.022;5.534;2023-04-19T08:46:23;12.80;54.00
65046;DHT22;54657;52.022;5.534;2023-04-19T08:48:49;12.90;53.30
65046;DHT22;54657;52.022;5.534;2023-04-19T08:51:19;12.90;53.40
65046;DHT22;54657;52.022;5.534;2023-04-19T08:53:45;12.80;52.80
65046;DHT22;54657;52.022;5.534;2023-04-19T08:56:13;12.90;53.90
65046;DHT22;54657;52.022;5.534;2023-04-19T08:58:38;13.00;53.90
65046;DHT22;54657;52.022;5.534;2023-04-19T09:01:05;13.00;52.30
65046;DHT22;54657;52.022;5.534;2023-04-19T09:03:31;13.00;52.00
65046;DHT22;54657;52.022;5.534;2023-04-19T09:05:57;13.00;51.90
65046;DHT22;54657;52.022;5.534;2023-04-19T09:08:25;13.00;52.40
65046;DHT22;54657;52.022;5.534;2023-04-19T09:10:59;13.10;51.10
65046;DHT22;54657;52.022;5.534;2023-04-19T09:13:26;13.00;50.70
65046;DHT22;54657;52.022;5.534;2023-04-19T09:15:53;12.90;50.80
65046;DHT22;54657;52.022;5.534;2023-04-19T09:18:21;13.00;50.80
65046;DHT22;54657;52.022;5.534;2023-04-19T09:20:48;13.00;50.50
65046;DHT22;54657;52.022;5.534;2023-04-19T09:23:17;13.10;50.00
65046;DHT22;54657;52.022;5.534;2023-04-19T09:26:01;13.10;50.40
65046;DHT22;54657;52.022;5.534;2023-04-19T09:28:29;13.10;50.10
65046;DHT22;54657;52.022;5.534;2023-04-19T09:30:55;13.20;51.30
65046;DHT22;54657;52.022;5.534;2023-04-19T09:33:35;13.30;50.50
65046;DHT22;54657;52.022;5.534;2023-04-19T09:36:04;13.30;46.70
65046;DHT22;54657;52.022;5.534;2023-04-19T09:38:36;13.10;49.30
65046;DHT22;54657;52.022;5.534;2023-04-19T09:41:10;13.20;48.70
65046;DHT22;54657;52.022;5.534;2023-04-19T09:43:36;13.20;50.60
65046;DHT22;54657;52.022;5.534;2023-04-19T09:46:02;13.30;50.70
65046;DHT22;54657;52.022;5.534;2023-04-19T09:48:28;13.40;50.00
65046;DHT22;54657;52.022;5.534;2023-04-19T09:50:59;13.40;49.10
65046;DHT22;54657;52.022;5.534;2023-04-19T09:53:28;13.40;48.40
65046;DHT22;54657;52.022;5.534;2023-04-19T09:55:54;13.30;49.60
65046;DHT22;54657;52.022;5.534;2023-04-19T09:58:20;13.20;49.50
65046;DHT22;54657;52.022;5.534;2023-04-19T10:00:47;13.30;49.50
65046;DHT22;54657;52.022;5.534;2023-04-19T10:03:14;13.40;50.20
65046;DHT22;54657;52.022;5.534;2023-04-19T10:05:42;13.50;50.20
65046;DHT22;54657;52.022;5.534;2023-04-19T10:08:09;13.50;49.60
65046;DHT22;54657;52.022;5.534;2023-04-19T10:10:35;13.60;48.30
65046;DHT22;54657;52.022;5.534;2023-04-19T10:13:03;13.50;48.80
65046;DHT22;54657;52.022;5.534;2023-04-19T10:15:31;13.60;49.90
65046;DHT22;54657;52.022;5.534;2023-04-19T10:17:58;13.70;48.80
65046;DHT22;54657;52.022;5.534;2023-04-19T10:23:08;13.60;45.60
65046;DHT22;54657;52.022;5.534;2023-04-19T10:25:37;13.70;49.00
65046;DHT22;54657;52.022;5.534;2023-04-19T10:28:03;13.70;48.80
65046;DHT22;54657;52.022;5.534;2023-04-19T10:30:29;13.70;48.90
65046;DHT22;54657;52.022;5.534;2023-04-19T10:32:57;13.80;50.10
65046;DHT22;54657;52.022;5.534;2023-04-19T10:35:27;14.00;48.30
65046;DHT22;54657;52.022;5.534;2023-04-19T10:38:03;14.10;47.10
65046;DHT22;54657;52.022;5.534;2023-04-19T10:43:19;14.20;44.60
65046;DHT22;54657;52.022;5.534;2023-04-19T10:45:46;14.20;47.10
65046;DHT22;54657;52.022;5.534;2023-04-19T10:51:15;14.20;44.70
65046;DHT22;54657;52.022;5.534;2023-04-19T11:04:18;14.60;46.30
65046;DHT22;54657;52.022;5.534;2023-04-19T11:11:48;14.50;45.80
65046;DHT22;54657;52.022;5.534;2023-04-19T11:14:15;14.50;45.90
65046;DHT22;54657;52.022;5.534;2023-04-19T11:16:41;14.40;46.20
65046;DHT22;54657;52.022;5.534;2023-04-19T11:19:06;14.50;46.40
65046;DHT22;54657;52.022;5.534;2023-04-19T11:21:32;14.50;46.50
65046;DHT22;54657;52.022;5.534;2023-04-19T11:24:08;14.50;46.10
65046;DHT22;54657;52.022;5.534;2023-04-19T11:26:34;14.70;44.90
65046;DHT22;54657;52.022;5.534;2023-04-19T11:29:00;14.70;45.30
65046;DHT22;54657;52.022;5.534;2023-04-19T11:31:26;14.80;44.00
65046;DHT22;54657;52.022;5.534;2023-04-19T11:33:52;14.80;44.50
65046;DHT22;54657;52.022;5.534;2023-04-19T11:36:18;14.80;42.60
65046;DHT22;54657;52.022;5.534;2023-04-19T11:38:47;14.70;43.50
65046;DHT22;54657;52.022;5.534;2023-04-19T11:41:13;14.70;42.20
65046;DHT22;54657;52.022;5.534;2023-04-19T11:43:39;14.80;42.50
65046;DHT22;54657;52.022;5.534;2023-04-19T11:46:10;14.70;43.40
65046;DHT22;54657;52.022;5.534;2023-04-19T11:48:36;14.80;44.00
65046;DHT22;54657;52.022;5.534;2023-04-19T11:51:02;14.90;43.90
65046;DHT22;54657;52.022;5.534;2023-04-19T11:53:30;14.90;43.30
65046;DHT22;54657;52.022;5.534;2023-04-19T12:03:32;15.20;41.80
65046;DHT22;54657;52.022;5.534;2023-04-19T12:06:01;15.30;42.00
65046;DHT22;54657;52.022;5.534;2023-04-19T12:08:35;15.30;41.00
65046;DHT22;54657;52.022;5.534;2023-04-19T12:11:02;15.30;38.80
65046;DHT22;54657;52.022;5.534;2023-04-19T12:13:28;15.10;39.60
65046;DHT22;54657;52.022;5.534;2023-04-19T12:15:58;15.10;40.10
65046;DHT22;54657;52.022;5.534;2023-04-19T12:18:24;15.10;40.50
65046;DHT22;54657;52.022;5.534;2023-04-19T12:20:51;15.20;40.50
65046;DHT22;54657;52.022;5.534;2023-04-19T12:23:19;15.20;41.10
65046;DHT22;54657;52.022;5.534;2023-04-19T12:25:47;15.30;41.00
65046;DHT22;54657;52.022;5.534;2023-04-19T12:28:14;15.40;41.10
65046;DHT22;54657;52.022;5.534;2023-04-19T12:30:40;15.50;41.80
65046;DHT22;54657;52.022;5.534;2023-04-19T12:33:07;15.60;41.50
65046;DHT22;54657;52.022;5.534;2023-04-19T12:35:33;15.60;41.20
65046;DHT22;54657;52.022;5.534;2023-04-19T12:38:00;15.70;42.40
65046;DHT22;54657;52.022;5.534;2023-04-19T12:40:27;15.80;41.20
65046;DHT22;54657;52.022;5.534;2023-04-19T12:42:53;15.70;42.40
65046;DHT22;54657;52.022;5.534;2023-04-19T12:45:19;15.70;41.70
65046;DHT22;54657;52.022;5.534;2023-04-19T12:47:46;15.80;40.60
65046;DHT22;54657;52.022;5.534;2023-04-19T12:50:13;15.70;40.70
65046;DHT22;54657;52.022;5.534;2023-04-19T12:52:40;15.80;40.70
65046;DHT22;54657;52.022;5.534;2023-04-19T12:55:06;15.70;39.80
65046;DHT22;54657;52.022;5.534;2023-04-19T12:57:32;15.70;39.90
65046;DHT22;54657;52.022;5.534;2023-04-19T12:59:58;15.70;40.70
65046;DHT22;54657;52.022;5.534;2023-04-19T13:02:23;15.70;39.60
65046;DHT22;54657;52.022;5.534;2023-04-19T13:04:49;15.70;40.60
65046;DHT22;54657;52.022;5.534;2023-04-19T13:07:15;15.70;40.40
65046;DHT22;54657;52.022;5.534;2023-04-19T13:09:41;15.80;40.60
65046;DHT22;54657;52.022;5.534;2023-04-19T13:12:07;15.80;40.80
65046;DHT22;54657;52.022;5.534;2023-04-19T13:14:33;15.80;40.30
65046;DHT22;54657;52.022;5.534;2023-04-19T13:16:58;15.70;40.50
65046;DHT22;54657;52.022;5.534;2023-04-19T13:19:24;15.80;40.70
65046;DHT22;54657;52.022;5.534;2023-04-19T13:21:50;15.80;41.10
65046;DHT22;54657;52.022;5.534;2023-04-19T13:24:16;15.80;41.20
65046;DHT22;54657;52.022;5.534;2023-04-19T13:26:41;15.90;41.70
65046;DHT22;54657;52.022;5.534;2023-04-19T13:29:07;16.00;41.40
65046;DHT22;54657;52.022;5.534;2023-04-19T13:31:33;15.90;41.10
65046;DHT22;54657;52.022;5.534;2023-04-19T13:33:59;15.80;41.40
65046;DHT22;54657;52.022;5.534;2023-04-19T13:36:25;15.80;41.10
65046;DHT22;54657;52.022;5.534;2023-04-19T13:38:52;15.80;42.00
65046;DHT22;54657;52.022;5.534;2023-04-19T13:41:18;15.80;41.10
65046;DHT22;54657;52.022;5.534;2023-04-19T13:43:44;15.70;41.60
65046;DHT22;54657;52.022;5.534;2023-04-19T13:46:09;15.80;41.10
65046;DHT22;54657;52.022;5.534;2023-04-19T13:48:35;15.80;40.90
65046;DHT22;54657;52.022;5.534;2023-04-19T13:51:01;15.80;41.10
65046;DHT22;54657;52.022;5.534;2023-04-19T13:53:27;15.90;41.70
65046;DHT22;54657;52.022;5.534;2023-04-19T13:55:53;15.90;41.20
65046;DHT22;54657;52.022;5.534;2023-04-19T13:58:19;16.00;39.90
65046;DHT22;54657;52.022;5.534;2023-04-19T14:00:45;16.10;41.50
65046;DHT22;54657;52.022;5.534;2023-04-19T14:03:12;16.00;39.40
65046;DHT22;54657;52.022;5.534;2023-04-19T14:05:38;16.00;40.70
65046;DHT22;54657;52.022;5.534;2023-04-19T14:08:04;15.90;40.90
65046;DHT22;54657;52.022;5.534;2023-04-19T14:10:30;16.00;41.50
65046;DHT22;54657;52.022;5.534;2023-04-19T14:12:55;16.10;41.00
65046;DHT22;54657;52.022;5.534;2023-04-19T14:15:21;16.10;39.60
65046;DHT22;54657;52.022;5.534;2023-04-19T14:17:48;16.10;41.40
65046;DHT22;54657;52.022;5.534;2023-04-19T14:20:15;16.20;39.50
65046;DHT22;54657;52.022;5.534;2023-04-19T14:22:41;16.20;39.10
65046;DHT22;54657;52.022;5.534;2023-04-19T14:25:07;16.20;40.30
65046;DHT22;54657;52.022;5.534;2023-04-19T14:27:33;16.20;40.60
65046;DHT22;54657;52.022;5.534;2023-04-19T14:29:59;16.20;39.40
65046;DHT22;54657;52.022;5.534;2023-04-19T14:32:24;16.20;40.00
65046;DHT22;54657;52.022;5.534;2023-04-19T14:34:50;16.10;40.00
65046;DHT22;54657;52.022;5.534;2023-04-19T14:37:17;16.10;39.80
65046;DHT22;54657;52.022;5.534;2023-04-19T14:39:44;16.20;40.00
65046;DHT22;54657;52.022;5.534;2023-04-19T14:42:10;16.30;39.40
65046;DHT22;54657;52.022;5.534;2023-04-19T14:44:36;16.30;38.70
65046;DHT22;54657;52.022;5.534;2023-04-19T14:47:02;16.30;39.70
65046;DHT22;54657;52.022;5.534;2023-04-19T14:49:27;16.30;40.00
65046;DHT22;54657;52.022;5.534;2023-04-19T14:51:53;16.30;38.50
65046;DHT22;54657;52.022;5.534;2023-04-19T14:54:19;16.20;38.70
65046;DHT22;54657;52.022;5.534;2023-04-19T14:56:45;16.10;39.40
65046;DHT22;54657;52.022;5.534;2023-04-19T14:59:11;16.20;39.80
65046;DHT22;54657;52.022;5.534;2023-04-19T15:01:37;16.20;39.80
65046;DHT22;54657;52.022;5.534;2023-04-19T15:04:03;16.20;39.90
65046;DHT22;54657;52.022;5.534;2023-04-19T15:06:28;16.20;39.40
65046;DHT22;54657;52.022;5.534;2023-04-19T15:08:55;16.10;39.60
65046;DHT22;54657;52.022;5.534;2023-04-19T15:11:21;16.00;39.70
65046;DHT22;54657;52.022;5.534;2023-04-19T15:13:55;16.00;40.30
65046;DHT22;54657;52.022;5.534;2023-04-19T15:16:20;16.00;40.00
65046;DHT22;54657;52.022;5.534;2023-04-19T15:18:46;16.00;40.10
65046;DHT22;54657;52.022;5.534;2023-04-19T15:21:12;16.00;39.90
65046;DHT22;54657;52.022;5.534;2023-04-19T15:23:37;15.90;40.50
65046;DHT22;54657;52.022;5.534;2023-04-19T15:26:03;15.90;40.80
65046;DHT22;54657;52.022;5.534;2023-04-19T15:28:32;15.90;39.70
65046;DHT22;54657;52.022;5.534;2023-04-19T15:31:01;15.90;39.80
65046;DHT22;54657;52.022;5.534;2023-04-19T15:33:28;15.80;40.50
65046;DHT22;54657;52.022;5.534;2023-04-19T15:35:54;15.80;41.10
65046;DHT22;54657;52.022;5.534;2023-04-19T15:38:29;15.90;40.80
65046;DHT22;54657;52.022;5.534;2023-04-19T15:40:56;15.90;39.40
65046;DHT22;54657;52.022;5.534;2023-04-19T15:43:22;15.90;42.10
65046;DHT22;54657;52.022;5.534;2023-04-19T15:45:48;16.00;41.20
65046;DHT22;54657;52.022;5.534;2023-04-19T15:48:14;16.00;41.20
65046;DHT22;54657;52.022;5.534;2023-04-19T15:50:40;16.00;41.20
65046;DHT22;54657;52.022;5.534;2023-04-19T15:53:06;15.90;40.60
65046;DHT22;54657;52.022;5.534;2023-04-19T15:55:32;15.90;40.60
65046;DHT22;54657;52.022;5.534;2023-04-19T15:57:59;15.90;41.10